< < Back
Terminal Aerodrome Forecast


Current Version              Previous Versions:   1  2  3  4  5  6  7  8  9  

Terminal Aerodrome Forecast

439
FTUS42 KMLB 222300
TAFMCO
TAF
KMCO 222333Z 2300/2324 22009KT P6SM SCT060 BKN150 BKN250
     FM230300 VRB03KT P6SM FEW250
     FM231400 28005KT P6SM FEW040
     FM232200 07005KT P6SM SCT040=

Latest METAR

135
SAUS70 KWBC 230300 RRJ
MTRMCO
METAR KMCO 230253Z 19003KT 10SM CLR 24/22 A3002 RMK AO2 SLP165 T02390222
51003


USA.gov is the U.S. government's official web portal to all federal, state and local government web resources and services.